sensor_id;sensor_type;location;lat;lon;timestamp;P1;durP1;ratioP1;P2;durP2;ratioP2
5428;SDS011;2737;52.386;9.980;2023-03-13T00:00:28;39.70;;;4.93;;
5428;SDS011;2737;52.386;9.980;2023-03-13T00:02:55;34.47;;;5.53;;
5428;SDS011;2737;52.386;9.980;2023-03-13T00:05:22;27.27;;;3.50;;
5428;SDS011;2737;52.386;9.980;2023-03-13T00:07:50;18.40;;;3.80;;
5428;SDS011;2737;52.386;9.980;2023-03-13T00:10:17;18.83;;;3.50;;
5428;SDS011;2737;52.386;9.980;2023-03-13T00:12:44;18.50;;;3.80;;
5428;SDS011;2737;52.386;9.980;2023-03-13T00:15:11;19.77;;;3.87;;
5428;SDS011;2737;52.386;9.980;2023-03-13T00:17:38;24.87;;;4.47;;
5428;SDS011;2737;52.386;9.980;2023-03-13T00:20:06;18.60;;;3.60;;
5428;SDS011;2737;52.386;9.980;2023-03-13T00:22:33;18.93;;;3.57;;
5428;SDS011;2737;52.386;9.980;2023-03-13T00:25:02;24.27;;;4.30;;
5428;SDS011;2737;52.386;9.980;2023-03-13T00:27:31;23.43;;;4.70;;
5428;SDS011;2737;52.386;9.980;2023-03-13T00:29:58;26.57;;;5.43;;
5428;SDS011;2737;52.386;9.980;2023-03-13T00:32:25;22.70;;;4.10;;
5428;SDS011;2737;52.386;9.980;2023-03-13T00:34:52;23.87;;;3.70;;
5428;SDS011;2737;52.386;9.980;2023-03-13T00:37:19;22.97;;;4.30;;
5428;SDS011;2737;52.386;9.980;2023-03-13T00:39:46;26.93;;;4.17;;
5428;SDS011;2737;52.386;9.980;2023-03-13T00:42:15;29.83;;;4.77;;
5428;SDS011;2737;52.386;9.980;2023-03-13T00:44:42;23.70;;;4.90;;
5428;SDS011;2737;52.386;9.980;2023-03-13T00:47:09;16.70;;;3.47;;
5428;SDS011;2737;52.386;9.980;2023-03-13T00:49:36;24.23;;;3.20;;
5428;SDS011;2737;52.386;9.980;2023-03-13T00:52:03;25.80;;;4.60;;
5428;SDS011;2737;52.386;9.980;2023-03-13T00:54:30;23.57;;;4.67;;
5428;SDS011;2737;52.386;9.980;2023-03-13T00:56:57;28.33;;;4.33;;
5428;SDS011;2737;52.386;9.980;2023-03-13T00:59:26;24.27;;;3.83;;
5428;SDS011;2737;52.386;9.980;2023-03-13T01:01:53;24.20;;;4.33;;
5428;SDS011;2737;52.386;9.980;2023-03-13T01:04:20;21.10;;;4.20;;
5428;SDS011;2737;52.386;9.980;2023-03-13T01:06:47;18.77;;;3.67;;
5428;SDS011;2737;52.386;9.980;2023-03-13T01:09:14;21.07;;;3.73;;
5428;SDS011;2737;52.386;9.980;2023-03-13T01:11:42;26.93;;;4.20;;
5428;SDS011;2737;52.386;9.980;2023-03-13T01:14:11;34.20;;;4.33;;
5428;SDS011;2737;52.386;9.980;2023-03-13T01:16:41;25.60;;;4.83;;
5428;SDS011;2737;52.386;9.980;2023-03-13T01:19:09;23.07;;;3.90;;
5428;SDS011;2737;52.386;9.980;2023-03-13T01:21:37;23.73;;;3.80;;
5428;SDS011;2737;52.386;9.980;2023-03-13T01:24:05;25.77;;;5.33;;
5428;SDS011;2737;52.386;9.980;2023-03-13T01:26:32;17.73;;;5.10;;
5428;SDS011;2737;52.386;9.980;2023-03-13T01:28:59;17.27;;;3.60;;
5428;SDS011;2737;52.386;9.980;2023-03-13T01:31:27;20.83;;;3.60;;
5428;SDS011;2737;52.386;9.980;2023-03-13T01:33:58;18.30;;;3.43;;
5428;SDS011;2737;52.386;9.980;2023-03-13T01:36:26;32.40;;;4.33;;
5428;SDS011;2737;52.386;9.980;2023-03-13T01:38:54;17.93;;;3.80;;
5428;SDS011;2737;52.386;9.980;2023-03-13T01:41:22;20.57;;;4.17;;
5428;SDS011;2737;52.386;9.980;2023-03-13T01:43:50;19.07;;;4.37;;
5428;SDS011;2737;52.386;9.980;2023-03-13T01:46:19;23.63;;;4.17;;
5428;SDS011;2737;52.386;9.980;2023-03-13T01:48:49;26.03;;;4.53;;
5428;SDS011;2737;52.386;9.980;2023-03-13T01:51:21;23.47;;;3.40;;
5428;SDS011;2737;52.386;9.980;2023-03-13T01:53:53;20.70;;;4.10;;
5428;SDS011;2737;52.386;9.980;2023-03-13T01:56:26;18.43;;;3.37;;
5428;SDS011;2737;52.386;9.980;2023-03-13T01:58:59;20.67;;;3.83;;
5428;SDS011;2737;52.386;9.980;2023-03-13T02:01:27;20.07;;;4.03;;
5428;SDS011;2737;52.386;9.980;2023-03-13T02:03:55;16.37;;;3.07;;
5428;SDS011;2737;52.386;9.980;2023-03-13T02:06:26;20.60;;;4.37;;
5428;SDS011;2737;52.386;9.980;2023-03-13T02:08:55;20.77;;;3.47;;
5428;SDS011;2737;52.386;9.980;2023-03-13T02:11:28;17.93;;;3.70;;
5428;SDS011;2737;52.386;9.980;2023-03-13T02:14:08;20.73;;;3.67;;
5428;SDS011;2737;52.386;9.980;2023-03-13T02:16:35;20.73;;;3.30;;
5428;SDS011;2737;52.386;9.980;2023-03-13T02:19:06;14.07;;;3.40;;
5428;SDS011;2737;52.386;9.980;2023-03-13T02:21:44;22.17;;;5.27;;
5428;SDS011;2737;52.386;9.980;2023-03-13T02:24:19;20.10;;;3.47;;
5428;SDS011;2737;52.386;9.980;2023-03-13T02:26:56;28.30;;;4.17;;
5428;SDS011;2737;52.386;9.980;2023-03-13T02:29:23;13.90;;;3.00;;
5428;SDS011;2737;52.386;9.980;2023-03-13T02:31:50;15.80;;;3.60;;
5428;SDS011;2737;52.386;9.980;2023-03-13T02:34:19;18.40;;;4.33;;
5428;SDS011;2737;52.386;9.980;2023-03-13T02:36:49;21.90;;;4.23;;
5428;SDS011;2737;52.386;9.980;2023-03-13T02:39:17;30.17;;;4.13;;
5428;SDS011;2737;52.386;9.980;2023-03-13T02:41:48;21.77;;;5.00;;
5428;SDS011;2737;52.386;9.980;2023-03-13T02:44:18;22.10;;;3.97;;
5428;SDS011;2737;52.386;9.980;2023-03-13T02:46:46;21.53;;;4.13;;
5428;SDS011;2737;52.386;9.980;2023-03-13T02:49:18;22.13;;;3.47;;
5428;SDS011;2737;52.386;9.980;2023-03-13T02:51:47;17.63;;;3.23;;
5428;SDS011;2737;52.386;9.980;2023-03-13T02:54:16;13.73;;;3.73;;
5428;SDS011;2737;52.386;9.980;2023-03-13T02:56:45;14.50;;;3.50;;
5428;SDS011;2737;52.386;9.980;2023-03-13T02:59:14;9.83;;;2.90;;
5428;SDS011;2737;52.386;9.980;2023-03-13T03:01:42;29.40;;;4.67;;
5428;SDS011;2737;52.386;9.980;2023-03-13T03:04:09;19.67;;;3.63;;
5428;SDS011;2737;52.386;9.980;2023-03-13T03:06:36;20.30;;;3.47;;
5428;SDS011;2737;52.386;9.980;2023-03-13T03:09:04;23.67;;;3.30;;
5428;SDS011;2737;52.386;9.980;2023-03-13T03:11:31;21.60;;;4.03;;
5428;SDS011;2737;52.386;9.980;2023-03-13T03:13:58;22.77;;;3.57;;
5428;SDS011;2737;52.386;9.980;2023-03-13T03:16:25;22.83;;;3.13;;
5428;SDS011;2737;52.386;9.980;2023-03-13T03:18:54;18.07;;;3.40;;
5428;SDS011;2737;52.386;9.980;2023-03-13T03:21:21;23.97;;;3.70;;
5428;SDS011;2737;52.386;9.980;2023-03-13T03:23:48;15.77;;;3.23;;
5428;SDS011;2737;52.386;9.980;2023-03-13T03:26:16;17.07;;;3.90;;
5428;SDS011;2737;52.386;9.980;2023-03-13T03:28:43;23.73;;;4.37;;
5428;SDS011;2737;52.386;9.980;2023-03-13T03:31:10;13.40;;;3.90;;
5428;SDS011;2737;52.386;9.980;2023-03-13T03:33:39;22.60;;;3.60;;
5428;SDS011;2737;52.386;9.980;2023-03-13T03:36:09;20.90;;;3.70;;
5428;SDS011;2737;52.386;9.980;2023-03-13T03:38:38;17.33;;;3.17;;
5428;SDS011;2737;52.386;9.980;2023-03-13T03:41:05;19.53;;;3.80;;
5428;SDS011;2737;52.386;9.980;2023-03-13T03:43:32;19.43;;;3.60;;
5428;SDS011;2737;52.386;9.980;2023-03-13T03:46:00;19.43;;;3.37;;
5428;SDS011;2737;52.386;9.980;2023-03-13T03:48:27;25.90;;;4.23;;
5428;SDS011;2737;52.386;9.980;2023-03-13T03:50:54;17.40;;;4.73;;
5428;SDS011;2737;52.386;9.980;2023-03-13T03:53:23;25.33;;;3.37;;
5428;SDS011;2737;52.386;9.980;2023-03-13T03:55:50;16.17;;;3.67;;
5428;SDS011;2737;52.386;9.980;2023-03-13T03:58:17;15.50;;;3.33;;
5428;SDS011;2737;52.386;9.980;2023-03-13T04:00:44;18.37;;;4.13;;
5428;SDS011;2737;52.386;9.980;2023-03-13T04:03:12;21.47;;;4.03;;
5428;SDS011;2737;52.386;9.980;2023-03-13T04:05:41;22.47;;;4.27;;
5428;SDS011;2737;52.386;9.980;2023-03-13T04:08:08;26.57;;;4.77;;
5428;SDS011;2737;52.386;9.980;2023-03-13T04:10:37;17.43;;;3.70;;
5428;SDS011;2737;52.386;9.980;2023-03-13T04:13:04;24.67;;;3.73;;
5428;SDS011;2737;52.386;9.980;2023-03-13T04:15:31;18.43;;;3.83;;
5428;SDS011;2737;52.386;9.980;2023-03-13T04:17:58;17.50;;;3.37;;
5428;SDS011;2737;52.386;9.980;2023-03-13T04:20:25;20.73;;;3.90;;
5428;SDS011;2737;52.386;9.980;2023-03-13T04:22:53;15.30;;;4.10;;
5428;SDS011;2737;52.386;9.980;2023-03-13T04:25:20;30.23;;;4.40;;
5428;SDS011;2737;52.386;9.980;2023-03-13T04:27:48;14.07;;;3.80;;
5428;SDS011;2737;52.386;9.980;2023-03-13T04:30:16;18.73;;;3.70;;
5428;SDS011;2737;52.386;9.980;2023-03-13T04:32:43;29.40;;;5.83;;
5428;SDS011;2737;52.386;9.980;2023-03-13T04:35:10;14.97;;;3.60;;
5428;SDS011;2737;52.386;9.980;2023-03-13T04:37:37;32.93;;;3.80;;
5428;SDS011;2737;52.386;9.980;2023-03-13T04:40:04;22.60;;;4.40;;
5428;SDS011;2737;52.386;9.980;2023-03-13T04:42:33;19.67;;;3.67;;
5428;SDS011;2737;52.386;9.980;2023-03-13T04:45:01;28.40;;;4.43;;
5428;SDS011;2737;52.386;9.980;2023-03-13T04:47:28;24.67;;;3.53;;
5428;SDS011;2737;52.386;9.980;2023-03-13T04:49:55;21.13;;;3.37;;
5428;SDS011;2737;52.386;9.980;2023-03-13T04:52:22;20.03;;;4.00;;
5428;SDS011;2737;52.386;9.980;2023-03-13T04:54:49;21.07;;;3.13;;
5428;SDS011;2737;52.386;9.980;2023-03-13T04:57:16;27.30;;;3.27;;
5428;SDS011;2737;52.386;9.980;2023-03-13T04:59:43;19.13;;;3.03;;
5428;SDS011;2737;52.386;9.980;2023-03-13T05:02:12;19.17;;;3.73;;
5428;SDS011;2737;52.386;9.980;2023-03-13T05:04:39;27.00;;;4.10;;
5428;SDS011;2737;52.386;9.980;2023-03-13T05:07:06;18.70;;;3.73;;
5428;SDS011;2737;52.386;9.980;2023-03-13T05:09:33;26.60;;;3.83;;
5428;SDS011;2737;52.386;9.980;2023-03-13T05:12:00;22.60;;;3.53;;
5428;SDS011;2737;52.386;9.980;2023-03-13T05:14:27;13.17;;;3.47;;
5428;SDS011;2737;52.386;9.980;2023-03-13T05:16:54;26.23;;;3.77;;
5428;SDS011;2737;52.386;9.980;2023-03-13T05:19:22;19.13;;;3.30;;
5428;SDS011;2737;52.386;9.980;2023-03-13T05:21:49;19.73;;;3.00;;
5428;SDS011;2737;52.386;9.980;2023-03-13T05:24:16;14.60;;;3.60;;
5428;SDS011;2737;52.386;9.980;2023-03-13T05:26:44;18.47;;;3.80;;
5428;SDS011;2737;52.386;9.980;2023-03-13T05:29:10;18.67;;;3.40;;
5428;SDS011;2737;52.386;9.980;2023-03-13T05:31:37;15.13;;;3.00;;
5428;SDS011;2737;52.386;9.980;2023-03-13T05:34:04;23.83;;;3.40;;
5428;SDS011;2737;52.386;9.980;2023-03-13T05:36:33;20.23;;;3.40;;
5428;SDS011;2737;52.386;9.980;2023-03-13T05:39:00;21.63;;;3.20;;
5428;SDS011;2737;52.386;9.980;2023-03-13T05:41:27;14.20;;;3.20;;
5428;SDS011;2737;52.386;9.980;2023-03-13T05:43:54;17.50;;;3.60;;
5428;SDS011;2737;52.386;9.980;2023-03-13T05:46:21;17.27;;;3.60;;
5428;SDS011;2737;52.386;9.980;2023-03-13T05:48:48;20.73;;;3.20;;
5428;SDS011;2737;52.386;9.980;2023-03-13T05:51:16;13.43;;;2.57;;
5428;SDS011;2737;52.386;9.980;2023-03-13T05:53:45;11.87;;;2.97;;
5428;SDS011;2737;52.386;9.980;2023-03-13T05:56:12;21.40;;;3.50;;
5428;SDS011;2737;52.386;9.980;2023-03-13T05:58:39;16.40;;;3.30;;
5428;SDS011;2737;52.386;9.980;2023-03-13T06:01:07;17.30;;;3.07;;
5428;SDS011;2737;52.386;9.980;2023-03-13T06:03:34;22.63;;;3.63;;
5428;SDS011;2737;52.386;9.980;2023-03-13T06:06:01;15.83;;;3.00;;
5428;SDS011;2737;52.386;9.980;2023-03-13T06:08:28;16.27;;;3.00;;
5428;SDS011;2737;52.386;9.980;2023-03-13T06:10:59;19.00;;;3.53;;
5428;SDS011;2737;52.386;9.980;2023-03-13T06:13:26;17.77;;;2.63;;
5428;SDS011;2737;52.386;9.980;2023-03-13T06:15:53;9.93;;;2.70;;
5428;SDS011;2737;52.386;9.980;2023-03-13T06:18:22;17.07;;;2.70;;
5428;SDS011;2737;52.386;9.980;2023-03-13T06:20:54;14.87;;;2.80;;
5428;SDS011;2737;52.386;9.980;2023-03-13T06:23:25;10.07;;;2.23;;
5428;SDS011;2737;52.386;9.980;2023-03-13T06:25:52;16.37;;;3.87;;
5428;SDS011;2737;52.386;9.980;2023-03-13T06:28:21;15.50;;;2.87;;
5428;SDS011;2737;52.386;9.980;2023-03-13T06:30:48;17.63;;;3.50;;
5428;SDS011;2737;52.386;9.980;2023-03-13T06:33:15;19.07;;;3.37;;
5428;SDS011;2737;52.386;9.980;2023-03-13T06:35:42;11.27;;;2.77;;
5428;SDS011;2737;52.386;9.980;2023-03-13T06:38:09;14.10;;;2.83;;
5428;SDS011;2737;52.386;9.980;2023-03-13T06:40:36;11.50;;;3.27;;
5428;SDS011;2737;52.386;9.980;2023-03-13T06:43:03;14.00;;;3.13;;
5428;SDS011;2737;52.386;9.980;2023-03-13T06:45:33;11.00;;;2.60;;
5428;SDS011;2737;52.386;9.980;2023-03-13T06:48:01;9.10;;;2.87;;
5428;SDS011;2737;52.386;9.980;2023-03-13T06:50:28;11.63;;;2.77;;
5428;SDS011;2737;52.386;9.980;2023-03-13T06:52:55;12.90;;;2.13;;
5428;SDS011;2737;52.386;9.980;2023-03-13T06:55:22;14.73;;;3.37;;
5428;SDS011;2737;52.386;9.980;2023-03-13T06:57:49;30.57;;;2.70;;
5428;SDS011;2737;52.386;9.980;2023-03-13T07:00:17;14.03;;;2.77;;
5428;SDS011;2737;52.386;9.980;2023-03-13T07:02:46;19.20;;;2.73;;
5428;SDS011;2737;52.386;9.980;2023-03-13T07:05:13;8.30;;;2.30;;
5428;SDS011;2737;52.386;9.980;2023-03-13T07:07:40;11.53;;;2.50;;
5428;SDS011;2737;52.386;9.980;2023-03-13T07:10:08;5.00;;;2.07;;
5428;SDS011;2737;52.386;9.980;2023-03-13T07:12:36;15.63;;;3.17;;
5428;SDS011;2737;52.386;9.980;2023-03-13T07:15:03;5.30;;;2.03;;
5428;SDS011;2737;52.386;9.980;2023-03-13T07:17:31;9.87;;;1.93;;
5428;SDS011;2737;52.386;9.980;2023-03-13T07:19:59;5.77;;;2.37;;
5428;SDS011;2737;52.386;9.980;2023-03-13T07:22:26;9.07;;;2.00;;
5428;SDS011;2737;52.386;9.980;2023-03-13T07:24:54;14.50;;;3.03;;
5428;SDS011;2737;52.386;9.980;2023-03-13T07:27:21;8.20;;;2.40;;
5428;SDS011;2737;52.386;9.980;2023-03-13T07:29:48;4.80;;;2.10;;
5428;SDS011;2737;52.386;9.980;2023-03-13T07:32:15;6.83;;;1.70;;
5428;SDS011;2737;52.386;9.980;2023-03-13T07:34:42;12.43;;;1.77;;
5428;SDS011;2737;52.386;9.980;2023-03-13T07:37:11;3.90;;;1.57;;
5428;SDS011;2737;52.386;9.980;2023-03-13T07:39:38;6.83;;;1.57;;
5428;SDS011;2737;52.386;9.980;2023-03-13T07:42:05;6.70;;;1.67;;
5428;SDS011;2737;52.386;9.980;2023-03-13T07:44:34;8.50;;;2.37;;
5428;SDS011;2737;52.386;9.980;2023-03-13T07:47:01;6.63;;;2.07;;
5428;SDS011;2737;52.386;9.980;2023-03-13T07:49:28;5.40;;;1.80;;
5428;SDS011;2737;52.386;9.980;2023-03-13T07:51:55;6.40;;;2.57;;
5428;SDS011;2737;52.386;9.980;2023-03-13T07:54:23;9.10;;;2.20;;
5428;SDS011;2737;52.386;9.980;2023-03-13T07:56:50;2.90;;;1.93;;
5428;SDS011;2737;52.386;9.980;2023-03-13T07:59:17;3.33;;;1.83;;
5428;SDS011;2737;52.386;9.980;2023-03-13T08:01:44;6.67;;;2.03;;
5428;SDS011;2737;52.386;9.980;2023-03-13T08:04:11;3.17;;;2.00;;
5428;SDS011;2737;52.386;9.980;2023-03-13T08:06:39;5.40;;;2.03;;
5428;SDS011;2737;52.386;9.980;2023-03-13T08:09:06;2.77;;;1.93;;
5428;SDS011;2737;52.386;9.980;2023-03-13T08:11:36;6.17;;;2.13;;
5428;SDS011;2737;52.386;9.980;2023-03-13T08:14:05;7.67;;;1.90;;
5428;SDS011;2737;52.386;9.980;2023-03-13T08:16:33;3.33;;;2.10;;
5428;SDS011;2737;52.386;9.980;2023-03-13T08:19:01;7.90;;;2.13;;
5428;SDS011;2737;52.386;9.980;2023-03-13T08:21:30;4.53;;;1.80;;
5428;SDS011;2737;52.386;9.980;2023-03-13T08:23:59;2.63;;;1.60;;
5428;SDS011;2737;52.386;9.980;2023-03-13T08:26:30;5.07;;;1.87;;
5428;SDS011;2737;52.386;9.980;2023-03-13T08:28:59;2.87;;;1.63;;
5428;SDS011;2737;52.386;9.980;2023-03-13T08:31:28;1.60;;;1.27;;
5428;SDS011;2737;52.386;9.980;2023-03-13T08:33:56;4.20;;;1.60;;
5428;SDS011;2737;52.386;9.980;2023-03-13T08:36:24;4.00;;;1.67;;
5428;SDS011;2737;52.386;9.980;2023-03-13T08:38:53;5.17;;;1.80;;
5428;SDS011;2737;52.386;9.980;2023-03-13T08:41:23;2.10;;;1.70;;
5428;SDS011;2737;52.386;9.980;2023-03-13T08:43:52;1.87;;;1.70;;
5428;SDS011;2737;52.386;9.980;2023-03-13T08:46:22;8.60;;;1.90;;
5428;SDS011;2737;52.386;9.980;2023-03-13T08:48:49;3.33;;;1.70;;
5428;SDS011;2737;52.386;9.980;2023-03-13T08:51:18;3.93;;;2.33;;
5428;SDS011;2737;52.386;9.980;2023-03-13T08:53:46;2.17;;;1.67;;
5428;SDS011;2737;52.386;9.980;2023-03-13T08:56:14;3.60;;;2.00;;
5428;SDS011;2737;52.386;9.980;2023-03-13T08:58:42;2.80;;;1.67;;
5428;SDS011;2737;52.386;9.980;2023-03-13T09:01:09;2.97;;;1.90;;
5428;SDS011;2737;52.386;9.980;2023-03-13T09:03:40;2.87;;;1.60;;
5428;SDS011;2737;52.386;9.980;2023-03-13T09:06:07;6.50;;;2.03;;
5428;SDS011;2737;52.386;9.980;2023-03-13T09:08:35;4.10;;;2.00;;
5428;SDS011;2737;52.386;9.980;2023-03-13T09:11:04;3.60;;;1.97;;
5428;SDS011;2737;52.386;9.980;2023-03-13T09:13:33;3.97;;;2.17;;
5428;SDS011;2737;52.386;9.980;2023-03-13T09:16:02;4.43;;;1.83;;
5428;SDS011;2737;52.386;9.980;2023-03-13T09:18:31;2.13;;;1.53;;
5428;SDS011;2737;52.386;9.980;2023-03-13T09:21:00;3.70;;;1.93;;
5428;SDS011;2737;52.386;9.980;2023-03-13T09:23:28;6.57;;;1.80;;
5428;SDS011;2737;52.386;9.980;2023-03-13T09:25:55;4.80;;;1.70;;
5428;SDS011;2737;52.386;9.980;2023-03-13T09:28:23;5.17;;;2.20;;
5428;SDS011;2737;52.386;9.980;2023-03-13T09:30:51;5.57;;;1.90;;
5428;SDS011;2737;52.386;9.980;2023-03-13T09:33:19;3.37;;;1.77;;
5428;SDS011;2737;52.386;9.980;2023-03-13T09:35:48;3.03;;;2.00;;
5428;SDS011;2737;52.386;9.980;2023-03-13T09:38:16;3.37;;;1.67;;
5428;SDS011;2737;52.386;9.980;2023-03-13T09:40:45;4.27;;;1.90;;
5428;SDS011;2737;52.386;9.980;2023-03-13T09:43:17;3.90;;;2.03;;
5428;SDS011;2737;52.386;9.980;2023-03-13T09:45:51;3.60;;;1.83;;
5428;SDS011;2737;52.386;9.980;2023-03-13T09:48:25;3.67;;;1.33;;
5428;SDS011;2737;52.386;9.980;2023-03-13T09:50:58;3.73;;;2.10;;
5428;SDS011;2737;52.386;9.980;2023-03-13T09:53:32;4.03;;;1.70;;
5428;SDS011;2737;52.386;9.980;2023-03-13T09:56:04;4.63;;;1.90;;
5428;SDS011;2737;52.386;9.980;2023-03-13T09:58:42;3.20;;;1.80;;
5428;SDS011;2737;52.386;9.980;2023-03-13T10:01:15;2.27;;;1.47;;
5428;SDS011;2737;52.386;9.980;2023-03-13T10:03:50;6.80;;;1.50;;
5428;SDS011;2737;52.386;9.980;2023-03-13T10:06:24;2.60;;;1.60;;
5428;SDS011;2737;52.386;9.980;2023-03-13T10:08:55;3.53;;;1.23;;
5428;SDS011;2737;52.386;9.980;2023-03-13T10:11:26;2.40;;;1.40;;
5428;SDS011;2737;52.386;9.980;2023-03-13T10:13:59;1.83;;;1.30;;
5428;SDS011;2737;52.386;9.980;2023-03-13T10:16:31;8.73;;;1.23;;
5428;SDS011;2737;52.386;9.980;2023-03-13T10:19:08;3.00;;;1.50;;
5428;SDS011;2737;52.386;9.980;2023-03-13T10:21:39;5.17;;;1.70;;
5428;SDS011;2737;52.386;9.980;2023-03-13T10:24:13;2.70;;;1.40;;
5428;SDS011;2737;52.386;9.980;2023-03-13T10:26:43;2.37;;;1.27;;
5428;SDS011;2737;52.386;9.980;2023-03-13T10:29:16;2.00;;;1.30;;
5428;SDS011;2737;52.386;9.980;2023-03-13T10:31:49;2.40;;;1.63;;
5428;SDS011;2737;52.386;9.980;2023-03-13T10:34:21;2.47;;;1.33;;
5428;SDS011;2737;52.386;9.980;2023-03-13T10:36:49;2.77;;;1.40;;
5428;SDS011;2737;52.386;9.980;2023-03-13T10:39:23;1.50;;;1.40;;
5428;SDS011;2737;52.386;9.980;2023-03-13T10:41:55;1.90;;;1.10;;
5428;SDS011;2737;52.386;9.980;2023-03-13T10:44:30;3.80;;;1.63;;
5428;SDS011;2737;52.386;9.980;2023-03-13T10:46:58;3.40;;;1.80;;
5428;SDS011;2737;52.386;9.980;2023-03-13T10:49:27;3.60;;;1.60;;
5428;SDS011;2737;52.386;9.980;2023-03-13T10:51:56;3.27;;;1.60;;
5428;SDS011;2737;52.386;9.980;2023-03-13T10:54:26;3.87;;;1.47;;
5428;SDS011;2737;52.386;9.980;2023-03-13T10:57:16;2.70;;;1.67;;
5428;SDS011;2737;52.386;9.980;2023-03-13T10:59:52;3.47;;;1.60;;
5428;SDS011;2737;52.386;9.980;2023-03-13T11:02:21;3.43;;;1.77;;
5428;SDS011;2737;52.386;9.980;2023-03-13T11:04:51;2.03;;;1.40;;
5428;SDS011;2737;52.386;9.980;2023-03-13T11:07:24;3.50;;;1.30;;
5428;SDS011;2737;52.386;9.980;2023-03-13T11:09:58;5.37;;;2.10;;
5428;SDS011;2737;52.386;9.980;2023-03-13T11:12:27;6.57;;;1.70;;
5428;SDS011;2737;52.386;9.980;2023-03-13T11:14:59;3.93;;;1.60;;
5428;SDS011;2737;52.386;9.980;2023-03-13T11:17:31;2.93;;;1.73;;
5428;SDS011;2737;52.386;9.980;2023-03-13T11:20:07;1.90;;;1.27;;
5428;SDS011;2737;52.386;9.980;2023-03-13T11:22:55;6.40;;;1.67;;
5428;SDS011;2737;52.386;9.980;2023-03-13T11:25:48;2.70;;;1.80;;
5428;SDS011;2737;52.386;9.980;2023-03-13T11:28:27;3.33;;;1.33;;
5428;SDS011;2737;52.386;9.980;2023-03-13T11:31:04;2.90;;;1.73;;
5428;SDS011;2737;52.386;9.980;2023-03-13T11:33:39;1.47;;;1.23;;
5428;SDS011;2737;52.386;9.980;2023-03-13T11:36:18;5.37;;;1.43;;
5428;SDS011;2737;52.386;9.980;2023-03-13T11:38:52;7.03;;;1.67;;
5428;SDS011;2737;52.386;9.980;2023-03-13T11:41:29;2.80;;;2.20;;
5428;SDS011;2737;52.386;9.980;2023-03-13T11:44:28;1.73;;;1.17;;
5428;SDS011;2737;52.386;9.980;2023-03-13T11:47:04;2.40;;;1.40;;
5428;SDS011;2737;52.386;9.980;2023-03-13T11:52:38;4.20;;;1.50;;
5428;SDS011;2737;52.386;9.980;2023-03-13T11:55:27;6.87;;;1.43;;
5428;SDS011;2737;52.386;9.980;2023-03-13T11:58:08;2.80;;;1.30;;
5428;SDS011;2737;52.386;9.980;2023-03-13T12:00:49;2.50;;;1.63;;
5428;SDS011;2737;52.386;9.980;2023-03-13T12:03:25;3.00;;;1.20;;
5428;SDS011;2737;52.386;9.980;2023-03-13T12:06:02;3.13;;;1.13;;
5428;SDS011;2737;52.386;9.980;2023-03-13T12:08:33;5.30;;;1.47;;
5428;SDS011;2737;52.386;9.980;2023-03-13T12:11:05;3.13;;;1.40;;
5428;SDS011;2737;52.386;9.980;2023-03-13T12:13:41;2.20;;;1.30;;
5428;SDS011;2737;52.386;9.980;2023-03-13T12:16:13;4.03;;;1.30;;
5428;SDS011;2737;52.386;9.980;2023-03-13T12:18:43;3.70;;;1.30;;
5428;SDS011;2737;52.386;9.980;2023-03-13T12:21:15;2.10;;;1.40;;
5428;SDS011;2737;52.386;9.980;2023-03-13T12:23:48;2.60;;;1.50;;
5428;SDS011;2737;52.386;9.980;2023-03-13T12:26:22;7.37;;;1.60;;
5428;SDS011;2737;52.386;9.980;2023-03-13T12:29:01;6.03;;;1.53;;
5428;SDS011;2737;52.386;9.980;2023-03-13T12:31:38;1.43;;;1.20;;
5428;SDS011;2737;52.386;9.980;2023-03-13T12:34:11;1.87;;;1.20;;
5428;SDS011;2737;52.386;9.980;2023-03-13T12:36:45;11.40;;;1.60;;
5428;SDS011;2737;52.386;9.980;2023-03-13T12:39:25;6.00;;;1.20;;
5428;SDS011;2737;52.386;9.980;2023-03-13T12:42:00;3.27;;;1.50;;
5428;SDS011;2737;52.386;9.980;2023-03-13T12:44:40;1.97;;;0.93;;
5428;SDS011;2737;52.386;9.980;2023-03-13T12:47:08;7.93;;;1.27;;
5428;SDS011;2737;52.386;9.980;2023-03-13T12:50:02;3.07;;;1.37;;
5428;SDS011;2737;52.386;9.980;2023-03-13T12:55:54;2.93;;;1.00;;
5428;SDS011;2737;52.386;9.980;2023-03-13T12:58:43;2.80;;;1.57;;
5428;SDS011;2737;52.386;9.980;2023-03-13T13:01:18;3.03;;;1.27;;
5428;SDS011;2737;52.386;9.980;2023-03-13T13:03:54;4.03;;;1.23;;
5428;SDS011;2737;52.386;9.980;2023-03-13T13:06:23;3.20;;;1.37;;
5428;SDS011;2737;52.386;9.980;2023-03-13T13:09:01;2.60;;;1.17;;
5428;SDS011;2737;52.386;9.980;2023-03-13T13:11:45;2.40;;;1.20;;
5428;SDS011;2737;52.386;9.980;2023-03-13T13:17:24;4.63;;;1.40;;
5428;SDS011;2737;52.386;9.980;2023-03-13T13:19:58;2.70;;;1.30;;
5428;SDS011;2737;52.386;9.980;2023-03-13T13:32:31;1.40;;;1.10;;
5428;SDS011;2737;52.386;9.980;2023-03-13T13:35:28;2.53;;;1.10;;
5428;SDS011;2737;52.386;9.980;2023-03-13T13:40:57;2.73;;;1.30;;
5428;SDS011;2737;52.386;9.980;2023-03-13T13:43:34;3.17;;;1.50;;
5428;SDS011;2737;52.386;9.980;2023-03-13T13:46:04;3.37;;;1.17;;
5428;SDS011;2737;52.386;9.980;2023-03-13T13:48:41;1.80;;;0.83;;
5428;SDS011;2737;52.386;9.980;2023-03-13T13:53:59;1.30;;;1.20;;
5428;SDS011;2737;52.386;9.980;2023-03-13T13:56:34;1.30;;;1.07;;
5428;SDS011;2737;52.386;9.980;2023-03-13T14:02:11;2.60;;;1.00;;
5428;SDS011;2737;52.386;9.980;2023-03-13T14:04:46;1.27;;;1.00;;
5428;SDS011;2737;52.386;9.980;2023-03-13T14:07:23;1.70;;;1.03;;
5428;SDS011;2737;52.386;9.980;2023-03-13T14:09:58;1.33;;;1.20;;
5428;SDS011;2737;52.386;9.980;2023-03-13T14:12:30;3.17;;;1.10;;
5428;SDS011;2737;52.386;9.980;2023-03-13T14:15:08;2.33;;;0.87;;
5428;SDS011;2737;52.386;9.980;2023-03-13T14:17:41;2.20;;;1.10;;
5428;SDS011;2737;52.386;9.980;2023-03-13T14:20:21;2.67;;;1.60;;
5428;SDS011;2737;52.386;9.980;2023-03-13T14:22:50;0.80;;;0.80;;
5428;SDS011;2737;52.386;9.980;2023-03-13T14:25:20;3.23;;;1.17;;
5428;SDS011;2737;52.386;9.980;2023-03-13T14:27:47;1.57;;;0.97;;
5428;SDS011;2737;52.386;9.980;2023-03-13T14:30:16;2.13;;;1.30;;
5428;SDS011;2737;52.386;9.980;2023-03-13T14:32:44;1.97;;;1.20;;
5428;SDS011;2737;52.386;9.980;2023-03-13T14:35:13;1.13;;;1.00;;
5428;SDS011;2737;52.386;9.980;2023-03-13T14:37:42;3.00;;;1.20;;
5428;SDS011;2737;52.386;9.980;2023-03-13T14:40:17;3.00;;;1.67;;
5428;SDS011;2737;52.386;9.980;2023-03-13T14:42:50;2.60;;;1.20;;
5428;SDS011;2737;52.386;9.980;2023-03-13T14:45:20;7.53;;;1.40;;
5428;SDS011;2737;52.386;9.980;2023-03-13T14:47:50;1.80;;;1.00;;
5428;SDS011;2737;52.386;9.980;2023-03-13T14:50:18;2.30;;;1.00;;
5428;SDS011;2737;52.386;9.980;2023-03-13T14:52:48;1.20;;;0.87;;
5428;SDS011;2737;52.386;9.980;2023-03-13T14:55:26;2.53;;;1.10;;
5428;SDS011;2737;52.386;9.980;2023-03-13T14:57:58;2.63;;;1.20;;
5428;SDS011;2737;52.386;9.980;2023-03-13T15:00:32;2.63;;;1.50;;
5428;SDS011;2737;52.386;9.980;2023-03-13T15:03:20;1.60;;;1.50;;
5428;SDS011;2737;52.386;9.980;2023-03-13T15:06:00;3.67;;;1.20;;
5428;SDS011;2737;52.386;9.980;2023-03-13T15:08:33;2.50;;;1.33;;
5428;SDS011;2737;52.386;9.980;2023-03-13T15:11:03;13.63;;;1.80;;
5428;SDS011;2737;52.386;9.980;2023-03-13T15:13:47;1.97;;;1.50;;
5428;SDS011;2737;52.386;9.980;2023-03-13T15:16:15;4.17;;;2.00;;
5428;SDS011;2737;52.386;9.980;2023-03-13T15:18:44;7.63;;;2.30;;
5428;SDS011;2737;52.386;9.980;2023-03-13T15:21:19;2.13;;;1.23;;
5428;SDS011;2737;52.386;9.980;2023-03-13T15:23:50;6.97;;;3.70;;
5428;SDS011;2737;52.386;9.980;2023-03-13T15:26:19;6.23;;;2.97;;
5428;SDS011;2737;52.386;9.980;2023-03-13T15:28:48;7.40;;;3.93;;
5428;SDS011;2737;52.386;9.980;2023-03-13T15:31:15;7.90;;;3.17;;
5428;SDS011;2737;52.386;9.980;2023-03-13T15:33:42;2.03;;;1.10;;
5428;SDS011;2737;52.386;9.980;2023-03-13T15:36:10;5.30;;;2.50;;
5428;SDS011;2737;52.386;9.980;2023-03-13T15:38:37;1.30;;;1.20;;
5428;SDS011;2737;52.386;9.980;2023-03-13T15:41:05;2.60;;;2.07;;
5428;SDS011;2737;52.386;9.980;2023-03-13T15:43:34;3.50;;;1.70;;
5428;SDS011;2737;52.386;9.980;2023-03-13T15:46:02;10.40;;;2.07;;
5428;SDS011;2737;52.386;9.980;2023-03-13T15:48:29;4.80;;;3.30;;
5428;SDS011;2737;52.386;9.980;2023-03-13T15:50:57;8.17;;;3.30;;
5428;SDS011;2737;52.386;9.980;2023-03-13T15:53:26;6.30;;;2.73;;